sensor_id;sensor_type;location;lat;lon;timestamp;P1;durP1;ratioP1;P2;durP2;ratioP2
64619;SDS011;51029;51.058;13.826;2023-02-13T00:01:12;18.17;;;12.37;;
64619;SDS011;51029;51.058;13.826;2023-02-13T00:03:38;17.03;;;12.70;;
64619;SDS011;51029;51.058;13.826;2023-02-13T00:06:03;22.67;;;13.60;;
64619;SDS011;51029;51.058;13.826;2023-02-13T00:08:29;19.63;;;13.63;;
64619;SDS011;51029;51.058;13.826;2023-02-13T00:10:54;20.10;;;13.90;;
64619;SDS011;51029;51.058;13.826;2023-02-13T00:13:20;18.10;;;13.10;;
64619;SDS011;51029;51.058;13.826;2023-02-13T00:15:53;23.53;;;14.63;;
64619;SDS011;51029;51.058;13.826;2023-02-13T00:18:20;19.43;;;13.50;;
64619;SDS011;51029;51.058;13.826;2023-02-13T00:20:55;22.07;;;13.93;;
64619;SDS011;51029;51.058;13.826;2023-02-13T00:23:24;20.47;;;13.80;;
64619;SDS011;51029;51.058;13.826;2023-02-13T00:25:50;18.80;;;13.10;;
64619;SDS011;51029;51.058;13.826;2023-02-13T00:28:15;21.80;;;14.40;;
64619;SDS011;51029;51.058;13.826;2023-02-13T00:30:41;21.57;;;14.00;;
64619;SDS011;51029;51.058;13.826;2023-02-13T00:33:06;23.87;;;14.53;;
64619;SDS011;51029;51.058;13.826;2023-02-13T00:35:32;23.13;;;14.83;;
64619;SDS011;51029;51.058;13.826;2023-02-13T00:37:57;23.73;;;13.57;;
64619;SDS011;51029;51.058;13.826;2023-02-13T00:40:23;24.10;;;15.63;;
64619;SDS011;51029;51.058;13.826;2023-02-13T00:42:49;20.80;;;14.57;;
64619;SDS011;51029;51.058;13.826;2023-02-13T00:45:14;23.13;;;14.57;;
64619;SDS011;51029;51.058;13.826;2023-02-13T00:47:40;23.50;;;14.53;;
64619;SDS011;51029;51.058;13.826;2023-02-13T00:50:05;24.77;;;15.37;;
64619;SDS011;51029;51.058;13.826;2023-02-13T00:52:31;21.67;;;14.90;;
64619;SDS011;51029;51.058;13.826;2023-02-13T00:54:56;19.90;;;13.37;;
64619;SDS011;51029;51.058;13.826;2023-02-13T00:57:22;22.97;;;14.87;;
64619;SDS011;51029;51.058;13.826;2023-02-13T00:59:47;21.57;;;14.33;;
64619;SDS011;51029;51.058;13.826;2023-02-13T01:02:13;20.23;;;13.60;;
64619;SDS011;51029;51.058;13.826;2023-02-13T01:04:38;20.07;;;13.97;;
64619;SDS011;51029;51.058;13.826;2023-02-13T01:07:04;18.83;;;13.67;;
64619;SDS011;51029;51.058;13.826;2023-02-13T01:09:29;19.57;;;13.37;;
64619;SDS011;51029;51.058;13.826;2023-02-13T01:11:55;20.23;;;13.37;;
64619;SDS011;51029;51.058;13.826;2023-02-13T01:14:20;19.33;;;13.77;;
64619;SDS011;51029;51.058;13.826;2023-02-13T01:16:46;22.57;;;14.57;;
64619;SDS011;51029;51.058;13.826;2023-02-13T01:19:11;17.10;;;12.50;;
64619;SDS011;51029;51.058;13.826;2023-02-13T01:21:37;19.93;;;13.03;;
64619;SDS011;51029;51.058;13.826;2023-02-13T01:24:03;20.80;;;13.90;;
64619;SDS011;51029;51.058;13.826;2023-02-13T01:26:30;20.07;;;13.50;;
64619;SDS011;51029;51.058;13.826;2023-02-13T01:28:55;17.80;;;13.07;;
64619;SDS011;51029;51.058;13.826;2023-02-13T01:31:24;19.43;;;13.50;;
64619;SDS011;51029;51.058;13.826;2023-02-13T01:33:50;18.47;;;13.87;;
64619;SDS011;51029;51.058;13.826;2023-02-13T01:36:16;19.63;;;14.00;;
64619;SDS011;51029;51.058;13.826;2023-02-13T01:38:41;19.93;;;13.93;;
64619;SDS011;51029;51.058;13.826;2023-02-13T01:41:07;18.73;;;12.47;;
64619;SDS011;51029;51.058;13.826;2023-02-13T01:46:15;17.80;;;12.73;;
64619;SDS011;51029;51.058;13.826;2023-02-13T01:48:44;19.60;;;13.50;;
64619;SDS011;51029;51.058;13.826;2023-02-13T01:51:13;19.23;;;13.40;;
64619;SDS011;51029;51.058;13.826;2023-02-13T01:53:51;19.97;;;12.77;;
64619;SDS011;51029;51.058;13.826;2023-02-13T01:56:34;17.30;;;12.47;;
64619;SDS011;51029;51.058;13.826;2023-02-13T01:59:04;17.63;;;12.47;;
64619;SDS011;51029;51.058;13.826;2023-02-13T02:01:34;21.17;;;13.40;;
64619;SDS011;51029;51.058;13.826;2023-02-13T02:04:05;18.83;;;12.57;;
64619;SDS011;51029;51.058;13.826;2023-02-13T02:06:36;20.27;;;12.90;;
64619;SDS011;51029;51.058;13.826;2023-02-13T02:09:10;18.27;;;12.47;;
64619;SDS011;51029;51.058;13.826;2023-02-13T02:14:20;19.67;;;13.60;;
64619;SDS011;51029;51.058;13.826;2023-02-13T02:16:45;18.17;;;13.07;;
64619;SDS011;51029;51.058;13.826;2023-02-13T02:19:13;20.47;;;13.87;;
64619;SDS011;51029;51.058;13.826;2023-02-13T02:21:54;17.77;;;12.77;;
64619;SDS011;51029;51.058;13.826;2023-02-13T02:24:57;21.13;;;14.07;;
64619;SDS011;51029;51.058;13.826;2023-02-13T02:30:38;19.90;;;13.40;;
64619;SDS011;51029;51.058;13.826;2023-02-13T02:33:10;21.20;;;14.00;;
64619;SDS011;51029;51.058;13.826;2023-02-13T02:35:43;20.13;;;13.97;;
64619;SDS011;51029;51.058;13.826;2023-02-13T02:41:39;23.60;;;14.80;;
64619;SDS011;51029;51.058;13.826;2023-02-13T02:44:42;23.67;;;15.63;;
64619;SDS011;51029;51.058;13.826;2023-02-13T02:47:24;22.50;;;15.13;;
64619;SDS011;51029;51.058;13.826;2023-02-13T02:56:07;25.23;;;16.27;;
64619;SDS011;51029;51.058;13.826;2023-02-13T02:58:44;27.37;;;17.43;;
64619;SDS011;51029;51.058;13.826;2023-02-13T03:01:34;28.87;;;17.57;;
64619;SDS011;51029;51.058;13.826;2023-02-13T03:04:27;28.67;;;17.77;;
64619;SDS011;51029;51.058;13.826;2023-02-13T03:07:19;27.27;;;17.03;;
64619;SDS011;51029;51.058;13.826;2023-02-13T03:09:46;27.63;;;17.50;;
64619;SDS011;51029;51.058;13.826;2023-02-13T03:12:38;36.57;;;21.27;;
64619;SDS011;51029;51.058;13.826;2023-02-13T03:15:29;28.73;;;17.77;;
64619;SDS011;51029;51.058;13.826;2023-02-13T03:17:55;33.93;;;19.17;;
64619;SDS011;51029;51.058;13.826;2023-02-13T03:24:06;33.53;;;20.93;;
64619;SDS011;51029;51.058;13.826;2023-02-13T03:26:44;35.43;;;21.17;;
64619;SDS011;51029;51.058;13.826;2023-02-13T03:29:28;45.70;;;22.23;;
64619;SDS011;51029;51.058;13.826;2023-02-13T03:32:25;34.93;;;20.40;;
64619;SDS011;51029;51.058;13.826;2023-02-13T03:35:01;37.33;;;23.20;;
64619;SDS011;51029;51.058;13.826;2023-02-13T03:37:56;41.07;;;22.67;;
64619;SDS011;51029;51.058;13.826;2023-02-13T03:40:31;38.13;;;22.40;;
64619;SDS011;51029;51.058;13.826;2023-02-13T03:46:45;36.50;;;20.10;;
64619;SDS011;51029;51.058;13.826;2023-02-13T03:49:33;43.70;;;23.27;;
64619;SDS011;51029;51.058;13.826;2023-02-13T03:52:25;41.00;;;23.10;;
64619;SDS011;51029;51.058;13.826;2023-02-13T03:55:15;39.97;;;22.67;;
64619;SDS011;51029;51.058;13.826;2023-02-13T03:58:08;38.57;;;21.53;;
64619;SDS011;51029;51.058;13.826;2023-02-13T04:00:58;41.13;;;22.93;;
64619;SDS011;51029;51.058;13.826;2023-02-13T04:06:01;36.30;;;21.83;;
64619;SDS011;51029;51.058;13.826;2023-02-13T04:08:31;48.03;;;23.53;;
64619;SDS011;51029;51.058;13.826;2023-02-13T04:10:58;41.77;;;22.23;;
64619;SDS011;51029;51.058;13.826;2023-02-13T04:13:55;64.63;;;24.20;;
64619;SDS011;51029;51.058;13.826;2023-02-13T04:16:28;43.83;;;23.50;;
64619;SDS011;51029;51.058;13.826;2023-02-13T04:18:59;48.13;;;25.37;;
64619;SDS011;51029;51.058;13.826;2023-02-13T04:21:25;46.57;;;24.30;;
64619;SDS011;51029;51.058;13.826;2023-02-13T04:23:51;55.43;;;25.20;;
64619;SDS011;51029;51.058;13.826;2023-02-13T04:26:17;52.77;;;26.53;;
64619;SDS011;51029;51.058;13.826;2023-02-13T04:28:45;55.03;;;25.73;;
64619;SDS011;51029;51.058;13.826;2023-02-13T04:31:11;53.67;;;26.73;;
64619;SDS011;51029;51.058;13.826;2023-02-13T04:33:37;50.47;;;26.03;;
64619;SDS011;51029;51.058;13.826;2023-02-13T04:36:02;50.90;;;26.27;;
64619;SDS011;51029;51.058;13.826;2023-02-13T04:38:28;47.97;;;25.03;;
64619;SDS011;51029;51.058;13.826;2023-02-13T04:40:53;50.63;;;26.37;;
64619;SDS011;51029;51.058;13.826;2023-02-13T04:43:19;52.60;;;25.83;;
64619;SDS011;51029;51.058;13.826;2023-02-13T04:45:48;51.20;;;25.77;;
64619;SDS011;51029;51.058;13.826;2023-02-13T04:48:13;53.73;;;25.73;;
64619;SDS011;51029;51.058;13.826;2023-02-13T04:50:39;52.93;;;26.30;;
64619;SDS011;51029;51.058;13.826;2023-02-13T04:53:05;49.03;;;25.60;;
64619;SDS011;51029;51.058;13.826;2023-02-13T04:55:30;53.87;;;25.57;;
64619;SDS011;51029;51.058;13.826;2023-02-13T04:57:56;48.83;;;25.00;;
64619;SDS011;51029;51.058;13.826;2023-02-13T05:00:22;47.53;;;24.90;;
64619;SDS011;51029;51.058;13.826;2023-02-13T05:02:50;51.13;;;24.70;;
64619;SDS011;51029;51.058;13.826;2023-02-13T05:05:16;50.37;;;25.67;;
64619;SDS011;51029;51.058;13.826;2023-02-13T05:07:42;51.20;;;24.63;;
64619;SDS011;51029;51.058;13.826;2023-02-13T05:10:08;46.63;;;24.67;;
64619;SDS011;51029;51.058;13.826;2023-02-13T05:12:34;40.93;;;23.20;;
64619;SDS011;51029;51.058;13.826;2023-02-13T05:15:00;48.77;;;24.33;;
64619;SDS011;51029;51.058;13.826;2023-02-13T05:17:26;47.47;;;25.57;;
64619;SDS011;51029;51.058;13.826;2023-02-13T05:19:51;44.90;;;24.23;;
64619;SDS011;51029;51.058;13.826;2023-02-13T05:22:17;49.30;;;24.70;;
64619;SDS011;51029;51.058;13.826;2023-02-13T05:25:01;42.87;;;23.93;;
64619;SDS011;51029;51.058;13.826;2023-02-13T05:27:26;41.60;;;22.90;;
64619;SDS011;51029;51.058;13.826;2023-02-13T05:29:52;42.20;;;23.63;;
64619;SDS011;51029;51.058;13.826;2023-02-13T05:32:17;38.03;;;22.53;;
64619;SDS011;51029;51.058;13.826;2023-02-13T05:34:43;44.63;;;23.40;;
64619;SDS011;51029;51.058;13.826;2023-02-13T05:37:08;41.93;;;22.67;;
64619;SDS011;51029;51.058;13.826;2023-02-13T05:39:34;39.30;;;21.97;;
64619;SDS011;51029;51.058;13.826;2023-02-13T05:41:59;41.10;;;23.73;;
64619;SDS011;51029;51.058;13.826;2023-02-13T05:44:25;46.43;;;23.63;;
64619;SDS011;51029;51.058;13.826;2023-02-13T05:46:50;45.73;;;24.77;;
64619;SDS011;51029;51.058;13.826;2023-02-13T05:49:17;39.13;;;21.07;;
64619;SDS011;51029;51.058;13.826;2023-02-13T05:51:43;43.40;;;22.83;;
64619;SDS011;51029;51.058;13.826;2023-02-13T05:54:10;40.70;;;22.83;;
64619;SDS011;51029;51.058;13.826;2023-02-13T05:56:36;43.00;;;22.90;;
64619;SDS011;51029;51.058;13.826;2023-02-13T05:59:01;49.20;;;23.97;;
64619;SDS011;51029;51.058;13.826;2023-02-13T06:01:28;43.57;;;24.03;;
64619;SDS011;51029;51.058;13.826;2023-02-13T06:03:53;40.17;;;23.10;;
64619;SDS011;51029;51.058;13.826;2023-02-13T06:06:19;41.60;;;22.87;;
64619;SDS011;51029;51.058;13.826;2023-02-13T06:08:45;43.90;;;22.70;;
64619;SDS011;51029;51.058;13.826;2023-02-13T06:11:11;41.83;;;22.90;;
64619;SDS011;51029;51.058;13.826;2023-02-13T06:13:36;45.57;;;22.83;;
64619;SDS011;51029;51.058;13.826;2023-02-13T06:16:04;45.40;;;24.40;;
64619;SDS011;51029;51.058;13.826;2023-02-13T06:18:32;41.33;;;23.23;;
64619;SDS011;51029;51.058;13.826;2023-02-13T06:20:58;42.10;;;23.57;;
64619;SDS011;51029;51.058;13.826;2023-02-13T06:23:23;45.23;;;23.93;;
64619;SDS011;51029;51.058;13.826;2023-02-13T06:25:49;43.93;;;23.17;;
64619;SDS011;51029;51.058;13.826;2023-02-13T06:28:14;46.37;;;23.33;;
64619;SDS011;51029;51.058;13.826;2023-02-13T06:30:40;46.23;;;24.87;;
64619;SDS011;51029;51.058;13.826;2023-02-13T06:33:05;48.97;;;24.33;;
64619;SDS011;51029;51.058;13.826;2023-02-13T06:35:31;50.73;;;24.93;;
64619;SDS011;51029;51.058;13.826;2023-02-13T06:37:57;49.87;;;25.70;;
64619;SDS011;51029;51.058;13.826;2023-02-13T06:40:22;50.73;;;25.43;;
64619;SDS011;51029;51.058;13.826;2023-02-13T06:42:48;53.63;;;27.13;;
64619;SDS011;51029;51.058;13.826;2023-02-13T06:45:13;53.00;;;25.43;;
64619;SDS011;51029;51.058;13.826;2023-02-13T06:47:40;55.97;;;26.43;;
64619;SDS011;51029;51.058;13.826;2023-02-13T06:50:07;51.23;;;25.50;;
64619;SDS011;51029;51.058;13.826;2023-02-13T06:52:32;56.83;;;25.87;;
64619;SDS011;51029;51.058;13.826;2023-02-13T06:54:59;61.77;;;26.83;;
64619;SDS011;51029;51.058;13.826;2023-02-13T06:57:25;47.13;;;25.83;;
64619;SDS011;51029;51.058;13.826;2023-02-13T06:59:51;54.07;;;25.50;;
64619;SDS011;51029;51.058;13.826;2023-02-13T07:02:16;55.53;;;26.47;;
64619;SDS011;51029;51.058;13.826;2023-02-13T07:04:42;53.50;;;26.33;;
64619;SDS011;51029;51.058;13.826;2023-02-13T07:07:07;54.10;;;24.97;;
64619;SDS011;51029;51.058;13.826;2023-02-13T07:09:33;47.37;;;24.30;;
64619;SDS011;51029;51.058;13.826;2023-02-13T07:12:01;48.73;;;24.17;;
64619;SDS011;51029;51.058;13.826;2023-02-13T07:14:30;51.60;;;25.17;;
64619;SDS011;51029;51.058;13.826;2023-02-13T07:16:56;47.13;;;23.77;;
64619;SDS011;51029;51.058;13.826;2023-02-13T07:19:21;57.80;;;24.70;;
64619;SDS011;51029;51.058;13.826;2023-02-13T07:21:47;48.30;;;24.87;;
64619;SDS011;51029;51.058;13.826;2023-02-13T07:24:12;53.07;;;24.63;;
64619;SDS011;51029;51.058;13.826;2023-02-13T07:26:38;45.73;;;23.80;;
64619;SDS011;51029;51.058;13.826;2023-02-13T07:29:03;48.77;;;23.37;;
64619;SDS011;51029;51.058;13.826;2023-02-13T07:31:31;43.23;;;23.10;;
64619;SDS011;51029;51.058;13.826;2023-02-13T07:33:58;40.83;;;22.03;;
64619;SDS011;51029;51.058;13.826;2023-02-13T07:36:24;47.00;;;23.60;;
64619;SDS011;51029;51.058;13.826;2023-02-13T07:38:50;49.07;;;23.83;;
64619;SDS011;51029;51.058;13.826;2023-02-13T07:41:15;46.70;;;23.70;;
64619;SDS011;51029;51.058;13.826;2023-02-13T07:43:40;42.77;;;23.30;;
64619;SDS011;51029;51.058;13.826;2023-02-13T07:46:06;47.13;;;23.73;;
64619;SDS011;51029;51.058;13.826;2023-02-13T07:48:33;50.40;;;26.33;;
64619;SDS011;51029;51.058;13.826;2023-02-13T07:50:58;47.80;;;23.60;;
64619;SDS011;51029;51.058;13.826;2023-02-13T07:53:26;41.87;;;22.60;;
64619;SDS011;51029;51.058;13.826;2023-02-13T07:55:51;39.30;;;21.70;;
64619;SDS011;51029;51.058;13.826;2023-02-13T07:58:17;44.77;;;22.73;;
64619;SDS011;51029;51.058;13.826;2023-02-13T08:00:42;44.43;;;22.63;;
64619;SDS011;51029;51.058;13.826;2023-02-13T08:03:08;46.13;;;21.93;;
64619;SDS011;51029;51.058;13.826;2023-02-13T08:05:34;42.67;;;21.70;;
64619;SDS011;51029;51.058;13.826;2023-02-13T08:07:59;45.33;;;23.37;;
64619;SDS011;51029;51.058;13.826;2023-02-13T08:10:25;44.87;;;22.40;;
64619;SDS011;51029;51.058;13.826;2023-02-13T08:13:09;50.27;;;22.37;;
64619;SDS011;51029;51.058;13.826;2023-02-13T08:15:37;42.70;;;22.70;;
64619;SDS011;51029;51.058;13.826;2023-02-13T08:18:03;39.70;;;21.73;;
64619;SDS011;51029;51.058;13.826;2023-02-13T08:20:29;44.10;;;24.37;;
64619;SDS011;51029;51.058;13.826;2023-02-13T08:23:00;40.17;;;22.33;;
64619;SDS011;51029;51.058;13.826;2023-02-13T08:25:30;42.63;;;22.50;;
64619;SDS011;51029;51.058;13.826;2023-02-13T08:27:57;43.27;;;21.43;;
64619;SDS011;51029;51.058;13.826;2023-02-13T08:30:24;41.47;;;21.87;;
64619;SDS011;51029;51.058;13.826;2023-02-13T08:32:49;45.20;;;22.93;;
64619;SDS011;51029;51.058;13.826;2023-02-13T08:35:15;45.83;;;23.47;;
64619;SDS011;51029;51.058;13.826;2023-02-13T08:37:40;40.77;;;22.07;;
64619;SDS011;51029;51.058;13.826;2023-02-13T08:40:06;40.43;;;21.40;;
64619;SDS011;51029;51.058;13.826;2023-02-13T08:42:34;42.27;;;21.83;;
64619;SDS011;51029;51.058;13.826;2023-02-13T08:45:00;38.20;;;20.63;;
64619;SDS011;51029;51.058;13.826;2023-02-13T08:47:26;41.20;;;22.20;;
64619;SDS011;51029;51.058;13.826;2023-02-13T08:49:51;39.53;;;21.73;;
64619;SDS011;51029;51.058;13.826;2023-02-13T08:52:17;39.67;;;21.93;;
64619;SDS011;51029;51.058;13.826;2023-02-13T08:54:42;38.40;;;21.87;;
64619;SDS011;51029;51.058;13.826;2023-02-13T08:57:08;40.90;;;23.10;;
64619;SDS011;51029;51.058;13.826;2023-02-13T08:59:33;37.40;;;21.60;;
64619;SDS011;51029;51.058;13.826;2023-02-13T09:01:59;36.80;;;21.70;;
64619;SDS011;51029;51.058;13.826;2023-02-13T09:04:24;41.77;;;23.00;;
64619;SDS011;51029;51.058;13.826;2023-02-13T09:06:50;34.07;;;20.50;;
64619;SDS011;51029;51.058;13.826;2023-02-13T09:09:15;36.03;;;20.93;;
64619;SDS011;51029;51.058;13.826;2023-02-13T09:11:41;32.80;;;20.07;;
64619;SDS011;51029;51.058;13.826;2023-02-13T09:14:06;38.57;;;20.77;;
64619;SDS011;51029;51.058;13.826;2023-02-13T09:16:32;33.80;;;20.77;;
64619;SDS011;51029;51.058;13.826;2023-02-13T09:18:57;34.90;;;20.27;;
64619;SDS011;51029;51.058;13.826;2023-02-13T09:21:23;34.80;;;20.63;;
64619;SDS011;51029;51.058;13.826;2023-02-13T09:23:49;33.37;;;20.23;;
64619;SDS011;51029;51.058;13.826;2023-02-13T09:26:15;34.13;;;20.17;;
64619;SDS011;51029;51.058;13.826;2023-02-13T09:28:43;33.13;;;19.50;;
64619;SDS011;51029;51.058;13.826;2023-02-13T09:31:18;31.77;;;19.53;;
64619;SDS011;51029;51.058;13.826;2023-02-13T09:33:45;27.97;;;17.30;;
64619;SDS011;51029;51.058;13.826;2023-02-13T09:36:13;28.87;;;18.60;;
64619;SDS011;51029;51.058;13.826;2023-02-13T09:38:43;33.37;;;19.50;;
64619;SDS011;51029;51.058;13.826;2023-02-13T09:41:10;30.67;;;20.07;;
64619;SDS011;51029;51.058;13.826;2023-02-13T09:43:53;26.87;;;18.13;;
64619;SDS011;51029;51.058;13.826;2023-02-13T09:46:32;27.40;;;17.13;;
64619;SDS011;51029;51.058;13.826;2023-02-13T09:49:28;28.93;;;18.37;;
64619;SDS011;51029;51.058;13.826;2023-02-13T09:51:49;27.90;;;16.87;;
64619;SDS011;51029;51.058;13.826;2023-02-13T09:54:19;25.80;;;17.03;;
64619;SDS011;51029;51.058;13.826;2023-02-13T09:57:32;27.97;;;17.13;;
64619;SDS011;51029;51.058;13.826;2023-02-13T10:03:02;25.93;;;16.60;;
64619;SDS011;51029;51.058;13.826;2023-02-13T10:08:33;26.80;;;16.73;;
64619;SDS011;51029;51.058;13.826;2023-02-13T10:16:46;23.03;;;14.87;;
64619;SDS011;51029;51.058;13.826;2023-02-13T10:19:28;25.73;;;15.93;;
64619;SDS011;51029;51.058;13.826;2023-02-13T10:24:39;25.03;;;16.70;;
64619;SDS011;51029;51.058;13.826;2023-02-13T10:27:22;23.47;;;16.53;;
64619;SDS011;51029;51.058;13.826;2023-02-13T10:29:51;23.20;;;15.83;;
64619;SDS011;51029;51.058;13.826;2023-02-13T10:38:31;21.07;;;15.60;;
64619;SDS011;51029;51.058;13.826;2023-02-13T10:41:02;23.53;;;16.07;;
64619;SDS011;51029;51.058;13.826;2023-02-13T10:43:37;23.60;;;15.80;;
64619;SDS011;51029;51.058;13.826;2023-02-13T10:46:14;23.47;;;15.50;;
64619;SDS011;51029;51.058;13.826;2023-02-13T10:57:18;20.43;;;13.43;;
64619;SDS011;51029;51.058;13.826;2023-02-13T11:02:55;21.30;;;15.73;;
64619;SDS011;51029;51.058;13.826;2023-02-13T11:05:30;20.07;;;13.97;;
64619;SDS011;51029;51.058;13.826;2023-02-13T11:07:57;22.07;;;13.67;;
64619;SDS011;51029;51.058;13.826;2023-02-13T11:10:24;18.47;;;13.13;;
64619;SDS011;51029;51.058;13.826;2023-02-13T11:12:51;21.10;;;13.83;;
64619;SDS011;51029;51.058;13.826;2023-02-13T11:17:47;18.07;;;14.20;;
64619;SDS011;51029;51.058;13.826;2023-02-13T11:20:48;15.53;;;11.43;;
64619;SDS011;51029;51.058;13.826;2023-02-13T11:25:59;14.17;;;10.73;;
64619;SDS011;51029;51.058;13.826;2023-02-13T11:28:33;14.47;;;10.73;;
64619;SDS011;51029;51.058;13.826;2023-02-13T11:31:10;13.73;;;10.70;;
64619;SDS011;51029;51.058;13.826;2023-02-13T11:33:39;12.73;;;10.70;;
64619;SDS011;51029;51.058;13.826;2023-02-13T11:36:06;13.53;;;10.77;;
64619;SDS011;51029;51.058;13.826;2023-02-13T11:38:34;14.97;;;10.90;;
64619;SDS011;51029;51.058;13.826;2023-02-13T11:41:08;11.70;;;10.17;;
64619;SDS011;51029;51.058;13.826;2023-02-13T11:43:48;12.00;;;10.10;;
64619;SDS011;51029;51.058;13.826;2023-02-13T11:46:19;12.93;;;10.93;;
64619;SDS011;51029;51.058;13.826;2023-02-13T11:48:56;12.63;;;10.73;;
64619;SDS011;51029;51.058;13.826;2023-02-13T11:51:41;12.63;;;11.30;;
64619;SDS011;51029;51.058;13.826;2023-02-13T11:56:48;12.50;;;10.37;;
64619;SDS011;51029;51.058;13.826;2023-02-13T11:59:15;13.77;;;10.73;;
64619;SDS011;51029;51.058;13.826;2023-02-13T12:01:41;11.70;;;9.97;;
64619;SDS011;51029;51.058;13.826;2023-02-13T12:04:17;12.97;;;10.97;;
64619;SDS011;51029;51.058;13.826;2023-02-13T12:07:09;11.20;;;9.73;;
64619;SDS011;51029;51.058;13.826;2023-02-13T12:10:33;12.63;;;11.00;;
64619;SDS011;51029;51.058;13.826;2023-02-13T12:12:58;13.90;;;11.03;;
64619;SDS011;51029;51.058;13.826;2023-02-13T12:15:34;13.67;;;10.77;;
64619;SDS011;51029;51.058;13.826;2023-02-13T12:20:41;14.57;;;11.13;;
64619;SDS011;51029;51.058;13.826;2023-02-13T12:23:32;13.73;;;11.20;;
64619;SDS011;51029;51.058;13.826;2023-02-13T12:26:32;30.80;;;27.67;;
64619;SDS011;51029;51.058;13.826;2023-02-13T12:29:29;13.60;;;10.90;;
64619;SDS011;51029;51.058;13.826;2023-02-13T12:32:16;11.27;;;10.07;;
64619;SDS011;51029;51.058;13.826;2023-02-13T12:34:50;11.70;;;10.10;;
64619;SDS011;51029;51.058;13.826;2023-02-13T12:37:35;11.50;;;10.30;;
64619;SDS011;51029;51.058;13.826;2023-02-13T12:40:29;11.00;;;9.80;;
64619;SDS011;51029;51.058;13.826;2023-02-13T12:45:46;10.70;;;9.53;;
64619;SDS011;51029;51.058;13.826;2023-02-13T12:48:31;11.50;;;10.30;;
64619;SDS011;51029;51.058;13.826;2023-02-13T12:51:35;11.57;;;10.10;;
64619;SDS011;51029;51.058;13.826;2023-02-13T12:59:50;10.17;;;8.60;;
64619;SDS011;51029;51.058;13.826;2023-02-13T13:02:31;11.10;;;9.93;;
64619;SDS011;51029;51.058;13.826;2023-02-13T13:20:56;9.17;;;8.27;;
64619;SDS011;51029;51.058;13.826;2023-02-13T13:23:52;10.67;;;8.23;;
64619;SDS011;51029;51.058;13.826;2023-02-13T13:26:37;8.30;;;7.50;;
64619;SDS011;51029;51.058;13.826;2023-02-13T13:29:18;8.27;;;7.47;;
64619;SDS011;51029;51.058;13.826;2023-02-13T13:31:57;9.53;;;8.03;;
64619;SDS011;51029;51.058;13.826;2023-02-13T13:34:26;9.60;;;8.57;;
64619;SDS011;51029;51.058;13.826;2023-02-13T13:47:59;9.83;;;8.40;;
64619;SDS011;51029;51.058;13.826;2023-02-13T13:50:42;8.27;;;7.47;;
64619;SDS011;51029;51.058;13.826;2023-02-13T14:03:39;8.87;;;7.30;;
64619;SDS011;51029;51.058;13.826;2023-02-13T14:06:09;8.17;;;7.23;;
64619;SDS011;51029;51.058;13.826;2023-02-13T14:11:04;7.87;;;6.60;;
64619;SDS011;51029;51.058;13.826;2023-02-13T14:13:51;8.50;;;6.67;;
64619;SDS011;51029;51.058;13.826;2023-02-13T14:25:01;7.87;;;6.57;;
64619;SDS011;51029;51.058;13.826;2023-02-13T14:27:33;8.63;;;7.07;;
64619;SDS011;51029;51.058;13.826;2023-02-13T14:32:56;7.63;;;6.77;;
64619;SDS011;51029;51.058;13.826;2023-02-13T14:35:31;9.40;;;7.50;;
64619;SDS011;51029;51.058;13.826;2023-02-13T14:38:01;9.80;;;8.40;;
64619;SDS011;51029;51.058;13.826;2023-02-13T14:45:48;9.87;;;8.90;;
64619;SDS011;51029;51.058;13.826;2023-02-13T14:48:57;10.30;;;9.20;;
64619;SDS011;51029;51.058;13.826;2023-02-13T14:51:34;9.83;;;8.83;;
64619;SDS011;51029;51.058;13.826;2023-02-13T14:54:06;10.83;;;9.53;;
64619;SDS011;51029;51.058;13.826;2023-02-13T14:56:44;11.17;;;9.93;;
64619;SDS011;51029;51.058;13.826;2023-02-13T14:59:19;11.50;;;10.23;;
64619;SDS011;51029;51.058;13.826;2023-02-13T15:04:40;11.43;;;9.93;;
64619;SDS011;51029;51.058;13.826;2023-02-13T15:07:18;12.00;;;10.60;;
64619;SDS011;51029;51.058;13.826;2023-02-13T15:09:50;13.47;;;10.53;;
64619;SDS011;51029;51.058;13.826;2023-02-13T15:14:56;12.67;;;11.30;;
64619;SDS011;51029;51.058;13.826;2023-02-13T15:17:26;13.03;;;11.40;;
64619;SDS011;51029;51.058;13.826;2023-02-13T15:20:06;13.00;;;11.50;;
64619;SDS011;51029;51.058;13.826;2023-02-13T15:22:52;15.47;;;11.63;;
64619;SDS011;51029;51.058;13.826;2023-02-13T15:25:28;13.47;;;10.90;;
64619;SDS011;51029;51.058;13.826;2023-02-13T15:27:55;13.70;;;11.93;;
64619;SDS011;51029;51.058;13.826;2023-02-13T15:30:25;13.33;;;11.53;;
64619;SDS011;51029;51.058;13.826;2023-02-13T15:32:53;13.43;;;11.10;;
64619;SDS011;51029;51.058;13.826;2023-02-13T15:35:30;12.83;;;11.27;;
64619;SDS011;51029;51.058;13.826;2023-02-13T15:38:22;13.67;;;11.23;;
64619;SDS011;51029;51.058;13.826;2023-02-13T15:40:52;13.23;;;11.83;;
64619;SDS011;51029;51.058;13.826;2023-02-13T15:43:35;12.13;;;10.73;;
64619;SDS011;51029;51.058;13.826;2023-02-13T15:46:05;14.60;;;11.47;;
64619;SDS011;51029;51.058;13.826;2023-02-13T15:48:42;14.20;;;12.07;;
64619;SDS011;51029;51.058;13.826;2023-02-13T15:51:09;13.43;;;11.73;;
64619;SDS011;51029;51.058;13.826;2023-02-13T15:54:00;14.37;;;11.77;;
64619;SDS011;51029;51.058;13.826;2023-02-13T15:56:28;13.73;;;11.57;;
64619;SDS011;51029;51.058;13.826;2023-02-13T15:58:55;14.20;;;11.67;;
64619;SDS011;51029;51.058;13.826;2023-02-13T16:01:22;14.80;;;12.57;;
64619;SDS011;51029;51.058;13.826;2023-02-13T16:04:04;20.70;;;13.33;;
64619;SDS011;51029;51.058;13.826;2023-02-13T16:06:32;14.90;;;12.83;;
64619;SDS011;51029;51.058;13.826;2023-02-13T16:08:58;16.17;;;13.00;;
64619;SDS011;51029;51.058;13.826;2023-02-13T16:11:31;16.40;;;12.37;;
64619;SDS011;51029;51.058;13.826;2023-02-13T16:16:41;15.90;;;13.27;;
64619;SDS011;51029;51.058;13.826;2023-02-13T16:22:30;18.83;;;14.23;;
64619;SDS011;51029;51.058;13.826;2023-02-13T16:25:19;17.03;;;13.70;;
64619;SDS011;51029;51.058;13.826;2023-02-13T16:27:56;17.10;;;14.13;;
64619;SDS011;51029;51.058;13.826;2023-02-13T16:30:28;16.37;;;14.57;;
64619;SDS011;51029;51.058;13.826;2023-02-13T16:35:42;19.13;;;15.40;;
64619;SDS011;51029;51.058;13.826;2023-02-13T16:41:03;20.27;;;15.53;;
64619;SDS011;51029;51.058;13.826;2023-02-13T16:43:39;19.37;;;15.07;;
64619;SDS011;51029;51.058;13.826;2023-02-13T16:48:39;18.73;;;15.53;;
64619;SDS011;51029;51.058;13.826;2023-02-13T16:51:05;19.70;;;15.90;;
64619;SDS011;51029;51.058;13.826;2023-02-13T16:53:31;19.97;;;15.63;;
64619;SDS011;51029;51.058;13.826;2023-02-13T16:55:58;17.70;;;15.80;;
64619;SDS011;51029;51.058;13.826;2023-02-13T16:58:26;18.77;;;15.33;;
64619;SDS011;51029;51.058;13.826;2023-02-13T17:00:52;19.43;;;14.93;;
64619;SDS011;51029;51.058;13.826;2023-02-13T17:03:19;20.33;;;15.60;;
64619;SDS011;51029;51.058;13.826;2023-02-13T17:05:44;20.63;;;15.73;;
64619;SDS011;51029;51.058;13.826;2023-02-13T17:08:10;20.23;;;15.37;;
64619;SDS011;51029;51.058;13.826;2023-02-13T17:10:36;24.40;;;18.87;;